sensor_id;sensor_type;location;lat;lon;timestamp;pressure;altitude;pressure_sealevel;temperature;humidity
65010;BME280;51556;50.002;22.014;2022-09-20T00:01:27;98880.27;;;10.00;73.32
65010;BME280;51556;50.002;22.014;2022-09-20T00:03:58;98876.02;;;10.02;73.49
65010;BME280;51556;50.002;22.014;2022-09-20T00:06:29;98876.04;;;10.01;73.63
65010;BME280;51556;50.002;22.014;2022-09-20T00:08:55;98877.69;;;9.98;73.59
65010;BME280;51556;50.002;22.014;2022-09-20T00:11:26;98872.58;;;9.99;73.73
65010;BME280;51556;50.002;22.014;2022-09-20T00:13:54;98875.92;;;9.99;73.71
65010;BME280;51556;50.002;22.014;2022-09-20T00:16:32;98872.76;;;9.99;73.61
65010;BME280;51556;50.002;22.014;2022-09-20T00:18:59;98873.13;;;9.99;73.98
65010;BME280;51556;50.002;22.014;2022-09-20T00:21:27;98867.80;;;10.00;73.78
65010;BME280;51556;50.002;22.014;2022-09-20T00:23:53;98868.63;;;10.01;73.79
65010;BME280;51556;50.002;22.014;2022-09-20T00:26:19;98867.36;;;9.97;74.15
65010;BME280;51556;50.002;22.014;2022-09-20T00:28:44;98866.80;;;9.93;74.09
65010;BME280;51556;50.002;22.014;2022-09-20T00:31:11;98867.38;;;9.91;73.91
65010;BME280;51556;50.002;22.014;2022-09-20T00:33:37;98869.89;;;9.89;74.23
65010;BME280;51556;50.002;22.014;2022-09-20T00:36:21;98867.73;;;9.91;74.23
65010;BME280;51556;50.002;22.014;2022-09-20T00:38:46;98864.86;;;9.93;74.30
65010;BME280;51556;50.002;22.014;2022-09-20T00:41:12;98867.45;;;9.94;74.29
65010;BME280;51556;50.002;22.014;2022-09-20T00:43:43;98865.77;;;9.97;74.38
65010;BME280;51556;50.002;22.014;2022-09-20T00:49:11;98869.38;;;9.95;74.57
65010;BME280;51556;50.002;22.014;2022-09-20T00:51:40;98871.30;;;9.95;74.32
65010;BME280;51556;50.002;22.014;2022-09-20T00:54:08;98869.69;;;9.96;74.56
65010;BME280;51556;50.002;22.014;2022-09-20T00:56:39;98871.73;;;9.98;74.71
65010;BME280;51556;50.002;22.014;2022-09-20T00:59:22;98873.33;;;9.98;74.59
65010;BME280;51556;50.002;22.014;2022-09-20T01:01:55;98874.81;;;9.95;74.63
65010;BME280;51556;50.002;22.014;2022-09-20T01:04:25;98877.06;;;9.96;74.63
65010;BME280;51556;50.002;22.014;2022-09-20T01:06:54;98873.54;;;9.96;74.64
65010;BME280;51556;50.002;22.014;2022-09-20T01:09:22;98873.52;;;9.97;74.89
65010;BME280;51556;50.002;22.014;2022-09-20T01:11:48;98873.42;;;10.00;74.44
65010;BME280;51556;50.002;22.014;2022-09-20T01:14:16;98875.52;;;10.05;74.50
65010;BME280;51556;50.002;22.014;2022-09-20T01:16:43;98870.94;;;10.05;74.61
65010;BME280;51556;50.002;22.014;2022-09-20T01:19:17;98871.27;;;10.07;74.46
65010;BME280;51556;50.002;22.014;2022-09-20T01:21:45;98869.71;;;10.12;74.65
65010;BME280;51556;50.002;22.014;2022-09-20T01:24:28;98872.08;;;10.14;74.33
65010;BME280;51556;50.002;22.014;2022-09-20T01:32:12;98869.09;;;10.21;74.67
65010;BME280;51556;50.002;22.014;2022-09-20T01:34:46;98867.56;;;10.19;74.04
65010;BME280;51556;50.002;22.014;2022-09-20T01:37:21;98869.48;;;10.20;74.40
65010;BME280;51556;50.002;22.014;2022-09-20T01:42:36;98870.54;;;10.19;74.72
65010;BME280;51556;50.002;22.014;2022-09-20T01:45:30;98869.84;;;10.20;74.79
65010;BME280;51556;50.002;22.014;2022-09-20T02:24:56;98870.21;;;10.01;75.03
65010;BME280;51556;50.002;22.014;2022-09-20T02:33:16;98881.64;;;9.90;75.41
65010;BME280;51556;50.002;22.014;2022-09-20T02:43:50;98884.91;;;9.75;76.56
65010;BME280;51556;50.002;22.014;2022-09-20T02:54:10;98877.54;;;9.74;76.61
65010;BME280;51556;50.002;22.014;2022-09-20T02:59:55;98880.77;;;9.72;76.93
65010;BME280;51556;50.002;22.014;2022-09-20T03:03:03;98881.90;;;9.69;76.91
65010;BME280;51556;50.002;22.014;2022-09-20T03:11:11;98880.82;;;9.53;77.45
65010;BME280;51556;50.002;22.014;2022-09-20T03:22:04;98880.07;;;9.49;77.53
65010;BME280;51556;50.002;22.014;2022-09-20T03:38:47;98886.00;;;9.57;78.13
65010;BME280;51556;50.002;22.014;2022-09-20T03:52:42;98884.83;;;9.71;77.90
65010;BME280;51556;50.002;22.014;2022-09-20T03:55:45;98885.36;;;9.71;77.73
65010;BME280;51556;50.002;22.014;2022-09-20T04:03:52;98885.91;;;9.77;77.98
65010;BME280;51556;50.002;22.014;2022-09-20T04:14:13;98884.70;;;9.99;77.68
65010;BME280;51556;50.002;22.014;2022-09-20T04:17:00;98887.42;;;10.08;77.29
65010;BME280;51556;50.002;22.014;2022-09-20T04:19:42;98896.29;;;10.17;76.97
65010;BME280;51556;50.002;22.014;2022-09-20T04:22:09;98900.25;;;10.21;76.97
65010;BME280;51556;50.002;22.014;2022-09-20T04:24:49;98907.42;;;10.22;76.65
65010;BME280;51556;50.002;22.014;2022-09-20T04:27:35;98908.86;;;10.26;77.19
65010;BME280;51556;50.002;22.014;2022-09-20T04:30:19;98910.58;;;10.33;76.65
65010;BME280;51556;50.002;22.014;2022-09-20T04:35:35;98915.14;;;10.44;76.78
65010;BME280;51556;50.002;22.014;2022-09-20T04:38:26;98910.13;;;10.41;76.12
65010;BME280;51556;50.002;22.014;2022-09-20T04:41:52;98911.92;;;10.40;76.33
65010;BME280;51556;50.002;22.014;2022-09-20T04:44:19;98917.23;;;10.39;76.47
65010;BME280;51556;50.002;22.014;2022-09-20T04:58:42;98920.13;;;10.32;76.93
65010;BME280;51556;50.002;22.014;2022-09-20T05:06:49;98940.70;;;10.38;77.39
65010;BME280;51556;50.002;22.014;2022-09-20T05:29:17;98976.12;;;10.69;76.90
65010;BME280;51556;50.002;22.014;2022-09-20T05:37:53;98967.55;;;10.45;77.47
65010;BME280;51556;50.002;22.014;2022-09-20T05:40:34;98964.60;;;10.43;77.60
65010;BME280;51556;50.002;22.014;2022-09-20T05:43:12;98968.20;;;10.47;77.47
65010;BME280;51556;50.002;22.014;2022-09-20T05:45:45;98965.39;;;10.52;77.89
65010;BME280;51556;50.002;22.014;2022-09-20T05:51:13;98975.32;;;10.67;77.62
65010;BME280;51556;50.002;22.014;2022-09-20T05:54:23;98974.44;;;10.73;77.60
65010;BME280;51556;50.002;22.014;2022-09-20T06:00:02;98980.89;;;10.84;77.27
65010;BME280;51556;50.002;22.014;2022-09-20T06:05:14;98980.98;;;10.87;77.25
65010;BME280;51556;50.002;22.014;2022-09-20T06:16:05;98992.73;;;10.89;77.37
65010;BME280;51556;50.002;22.014;2022-09-20T06:19:14;98989.70;;;10.84;77.46
65010;BME280;51556;50.002;22.014;2022-09-20T06:21:51;98983.20;;;10.84;77.52
65010;BME280;51556;50.002;22.014;2022-09-20T06:24:54;98985.18;;;10.88;77.61
65010;BME280;51556;50.002;22.014;2022-09-20T06:27:25;98985.20;;;10.98;77.81
65010;BME280;51556;50.002;22.014;2022-09-20T06:30:00;98982.44;;;11.02;77.78
65010;BME280;51556;50.002;22.014;2022-09-20T06:32:26;98985.45;;;11.07;77.93
65010;BME280;51556;50.002;22.014;2022-09-20T06:34:52;98987.30;;;11.09;77.72
65010;BME280;51556;50.002;22.014;2022-09-20T06:43:24;99002.28;;;11.24;77.69
65010;BME280;51556;50.002;22.014;2022-09-20T06:45:50;99004.89;;;11.30;77.52
65010;BME280;51556;50.002;22.014;2022-09-20T06:48:15;99008.13;;;11.33;77.52
65010;BME280;51556;50.002;22.014;2022-09-20T06:50:43;99009.33;;;11.34;77.20
65010;BME280;51556;50.002;22.014;2022-09-20T06:53:14;99011.31;;;11.33;77.32
65010;BME280;51556;50.002;22.014;2022-09-20T06:55:43;99011.95;;;11.35;77.31
65010;BME280;51556;50.002;22.014;2022-09-20T06:58:10;99011.35;;;11.37;77.56
65010;BME280;51556;50.002;22.014;2022-09-20T07:00:36;99013.27;;;11.44;77.49
65010;BME280;51556;50.002;22.014;2022-09-20T07:03:04;99013.48;;;11.48;77.35
65010;BME280;51556;50.002;22.014;2022-09-20T07:05:30;99022.42;;;11.53;77.49
65010;BME280;51556;50.002;22.014;2022-09-20T07:07:58;99022.77;;;11.58;77.51
65010;BME280;51556;50.002;22.014;2022-09-20T07:10:26;99024.59;;;11.62;77.44
65010;BME280;51556;50.002;22.014;2022-09-20T07:12:59;99026.88;;;11.62;77.56
65010;BME280;51556;50.002;22.014;2022-09-20T07:15:27;99029.66;;;11.63;77.49
65010;BME280;51556;50.002;22.014;2022-09-20T07:17:54;99031.21;;;11.64;77.61
65010;BME280;51556;50.002;22.014;2022-09-20T07:20:20;99032.77;;;11.60;77.82
65010;BME280;51556;50.002;22.014;2022-09-20T07:22:46;99034.73;;;11.49;78.13
65010;BME280;51556;50.002;22.014;2022-09-20T07:25:12;99034.31;;;11.46;78.42
65010;BME280;51556;50.002;22.014;2022-09-20T07:27:37;99037.02;;;11.45;78.69
65010;BME280;51556;50.002;22.014;2022-09-20T07:30:05;99037.96;;;11.43;78.48
65010;BME280;51556;50.002;22.014;2022-09-20T07:32:31;99040.23;;;11.44;78.79
65010;BME280;51556;50.002;22.014;2022-09-20T07:34:56;99045.45;;;11.51;78.88
65010;BME280;51556;50.002;22.014;2022-09-20T07:37:21;99047.02;;;11.56;79.09
65010;BME280;51556;50.002;22.014;2022-09-20T07:39:47;99044.90;;;11.61;78.86
65010;BME280;51556;50.002;22.014;2022-09-20T07:42:13;99050.04;;;11.70;78.69
65010;BME280;51556;50.002;22.014;2022-09-20T07:44:38;99051.05;;;11.78;78.53
65010;BME280;51556;50.002;22.014;2022-09-20T07:47:07;99054.36;;;11.84;78.32
65010;BME280;51556;50.002;22.014;2022-09-20T07:49:34;99056.20;;;11.91;78.05
65010;BME280;51556;50.002;22.014;2022-09-20T07:52:00;99053.69;;;11.97;77.88
65010;BME280;51556;50.002;22.014;2022-09-20T07:54:25;99053.98;;;11.98;77.60
65010;BME280;51556;50.002;22.014;2022-09-20T07:56:54;99057.27;;;12.00;77.48
65010;BME280;51556;50.002;22.014;2022-09-20T07:59:19;99058.58;;;11.99;77.29
65010;BME280;51556;50.002;22.014;2022-09-20T08:01:45;99056.09;;;11.94;77.27
65010;BME280;51556;50.002;22.014;2022-09-20T08:04:11;99057.95;;;12.01;77.49
65010;BME280;51556;50.002;22.014;2022-09-20T08:06:38;99058.34;;;12.10;77.72
65010;BME280;51556;50.002;22.014;2022-09-20T08:09:05;99063.05;;;12.22;77.68
65010;BME280;51556;50.002;22.014;2022-09-20T08:11:31;99064.02;;;12.28;77.49
65010;BME280;51556;50.002;22.014;2022-09-20T08:13:58;99064.98;;;12.30;76.97
65010;BME280;51556;50.002;22.014;2022-09-20T08:16:25;99068.36;;;12.30;76.96
65010;BME280;51556;50.002;22.014;2022-09-20T08:18:57;99064.99;;;12.30;76.67
65010;BME280;51556;50.002;22.014;2022-09-20T08:21:31;99066.80;;;12.29;76.36
65010;BME280;51556;50.002;22.014;2022-09-20T08:23:58;99064.98;;;12.35;76.71
65010;BME280;51556;50.002;22.014;2022-09-20T08:26:25;99064.52;;;12.38;76.27
65010;BME280;51556;50.002;22.014;2022-09-20T08:28:54;99069.73;;;12.31;76.23
65010;BME280;51556;50.002;22.014;2022-09-20T08:31:22;99074.08;;;12.33;76.22
65010;BME280;51556;50.002;22.014;2022-09-20T08:33:49;99070.90;;;12.37;76.45
65010;BME280;51556;50.002;22.014;2022-09-20T08:36:18;99073.58;;;12.46;76.55
65010;BME280;51556;50.002;22.014;2022-09-20T08:38:44;99072.70;;;12.51;76.28
65010;BME280;51556;50.002;22.014;2022-09-20T08:41:31;99072.77;;;12.49;76.00
65010;BME280;51556;50.002;22.014;2022-09-20T08:44:19;99076.17;;;12.43;75.81
65010;BME280;51556;50.002;22.014;2022-09-20T08:46:50;99074.58;;;12.39;75.77
65010;BME280;51556;50.002;22.014;2022-09-20T08:49:24;99075.90;;;12.36;75.91
65010;BME280;51556;50.002;22.014;2022-09-20T08:51:51;99075.80;;;12.29;76.04
65010;BME280;51556;50.002;22.014;2022-09-20T08:54:18;99078.22;;;12.21;76.12
65010;BME280;51556;50.002;22.014;2022-09-20T08:56:46;99076.44;;;12.13;75.97
65010;BME280;51556;50.002;22.014;2022-09-20T08:59:20;99079.56;;;12.14;76.30
65010;BME280;51556;50.002;22.014;2022-09-20T09:01:48;99076.84;;;12.21;76.26
65010;BME280;51556;50.002;22.014;2022-09-20T09:04:20;99079.98;;;12.26;76.26
65010;BME280;51556;50.002;22.014;2022-09-20T09:06:48;99077.52;;;12.30;75.92
65010;BME280;51556;50.002;22.014;2022-09-20T09:09:22;99078.21;;;12.30;75.55
65010;BME280;51556;50.002;22.014;2022-09-20T09:11:51;99077.98;;;12.32;75.90
65010;BME280;51556;50.002;22.014;2022-09-20T09:14:43;99075.73;;;12.45;76.36
65010;BME280;51556;50.002;22.014;2022-09-20T09:17:35;99075.66;;;12.52;75.56
65010;BME280;51556;50.002;22.014;2022-09-20T09:20:16;99071.27;;;12.56;75.52
65010;BME280;51556;50.002;22.014;2022-09-20T09:22:48;99074.72;;;12.66;75.73
65010;BME280;51556;50.002;22.014;2022-09-20T09:25:35;99076.00;;;12.75;74.95
65010;BME280;51556;50.002;22.014;2022-09-20T09:30:44;99071.92;;;12.89;75.32
65010;BME280;51556;50.002;22.014;2022-09-20T09:33:29;99067.05;;;13.00;74.33
65010;BME280;51556;50.002;22.014;2022-09-20T09:38:33;99069.49;;;13.10;73.39
65010;BME280;51556;50.002;22.014;2022-09-20T09:41:04;99068.66;;;13.18;73.49
65010;BME280;51556;50.002;22.014;2022-09-20T09:43:33;99067.98;;;13.26;73.03
65010;BME280;51556;50.002;22.014;2022-09-20T09:46:19;99065.45;;;13.28;72.41
65010;BME280;51556;50.002;22.014;2022-09-20T09:51:32;99070.91;;;13.32;72.77
65010;BME280;51556;50.002;22.014;2022-09-20T09:53:59;99073.60;;;13.39;72.40
65010;BME280;51556;50.002;22.014;2022-09-20T10:07:28;99072.02;;;13.77;71.91
65010;BME280;51556;50.002;22.014;2022-09-20T10:22:56;99069.56;;;13.80;71.02
65010;BME280;51556;50.002;22.014;2022-09-20T10:31:04;99063.20;;;14.01;70.46
65010;BME280;51556;50.002;22.014;2022-09-20T10:33:42;99060.95;;;14.27;71.21
65010;BME280;51556;50.002;22.014;2022-09-20T10:36:24;99058.34;;;14.50;70.26
65010;BME280;51556;50.002;22.014;2022-09-20T10:39:01;99060.05;;;14.66;68.23
65010;BME280;51556;50.002;22.014;2022-09-20T10:44:44;99059.40;;;14.72;66.06
65010;BME280;51556;50.002;22.014;2022-09-20T10:47:15;99058.96;;;14.74;66.58
65010;BME280;51556;50.002;22.014;2022-09-20T10:50:06;99057.57;;;14.81;66.41
65010;BME280;51556;50.002;22.014;2022-09-20T10:55:26;99056.95;;;15.08;67.08
65010;BME280;51556;50.002;22.014;2022-09-20T10:58:15;99058.20;;;15.29;66.26
65010;BME280;51556;50.002;22.014;2022-09-20T11:04:10;99058.19;;;15.37;64.19
65010;BME280;51556;50.002;22.014;2022-09-20T11:09:26;99061.19;;;15.62;64.55
65010;BME280;51556;50.002;22.014;2022-09-20T11:12:26;99063.27;;;15.74;64.43
65010;BME280;51556;50.002;22.014;2022-09-20T11:14:56;99061.55;;;15.80;61.56
65010;BME280;51556;50.002;22.014;2022-09-20T11:17:31;99060.45;;;16.01;63.42
65010;BME280;51556;50.002;22.014;2022-09-20T11:20:06;99061.90;;;16.24;60.85
65010;BME280;51556;50.002;22.014;2022-09-20T11:27:53;99064.80;;;16.66;60.63
65010;BME280;51556;50.002;22.014;2022-09-20T11:30:22;99067.77;;;16.70;59.83
65010;BME280;51556;50.002;22.014;2022-09-20T11:37:47;99057.30;;;17.26;57.48
65010;BME280;51556;50.002;22.014;2022-09-20T11:41:00;99057.55;;;17.31;54.92
65010;BME280;51556;50.002;22.014;2022-09-20T11:43:18;99052.93;;;17.21;53.98
65010;BME280;51556;50.002;22.014;2022-09-20T11:45:48;99050.27;;;17.15;54.34
65010;BME280;51556;50.002;22.014;2022-09-20T11:48:26;99050.76;;;17.31;55.98
65010;BME280;51556;50.002;22.014;2022-09-20T11:51:04;99047.96;;;17.33;54.28
65010;BME280;51556;50.002;22.014;2022-09-20T11:56:39;99050.33;;;17.17;53.08
65010;BME280;51556;50.002;22.014;2022-09-20T11:59:26;99049.15;;;16.97;52.17
65010;BME280;51556;50.002;22.014;2022-09-20T12:01:55;99045.06;;;16.85;54.14
65010;BME280;51556;50.002;22.014;2022-09-20T12:04:30;99043.73;;;16.86;54.74
65010;BME280;51556;50.002;22.014;2022-09-20T12:07:04;99047.56;;;16.85;54.09
65010;BME280;51556;50.002;22.014;2022-09-20T12:09:41;99045.88;;;17.08;54.43
65010;BME280;51556;50.002;22.014;2022-09-20T12:14:39;99041.99;;;17.20;52.24
65010;BME280;51556;50.002;22.014;2022-09-20T12:26:02;99045.77;;;18.15;51.85
65010;BME280;51556;50.002;22.014;2022-09-20T12:28:33;99046.27;;;18.38;49.34
65010;BME280;51556;50.002;22.014;2022-09-20T12:39:24;99043.63;;;20.08;46.46
65010;BME280;51556;50.002;22.014;2022-09-20T12:41:59;99040.70;;;20.20;45.89
65010;BME280;51556;50.002;22.014;2022-09-20T12:46:58;99045.45;;;20.21;45.99
65010;BME280;51556;50.002;22.014;2022-09-20T12:49:34;99041.97;;;20.09;45.84
65010;BME280;51556;50.002;22.014;2022-09-20T12:52:30;99041.73;;;19.82;46.10
65010;BME280;51556;50.002;22.014;2022-09-20T12:55:45;99041.58;;;19.55;46.37
65010;BME280;51556;50.002;22.014;2022-09-20T13:03:23;99050.13;;;18.54;47.71
65010;BME280;51556;50.002;22.014;2022-09-20T13:11:22;99057.81;;;17.47;48.44
65010;BME280;51556;50.002;22.014;2022-09-20T13:13:54;99060.63;;;17.27;49.20
65010;BME280;51556;50.002;22.014;2022-09-20T13:19:00;99061.04;;;16.95;51.19
65010;BME280;51556;50.002;22.014;2022-09-20T13:21:28;99071.46;;;16.77;52.83
65010;BME280;51556;50.002;22.014;2022-09-20T13:23:54;99063.79;;;16.58;51.51
65010;BME280;51556;50.002;22.014;2022-09-20T13:26:34;99052.95;;;16.38;52.75
65010;BME280;51556;50.002;22.014;2022-09-20T13:29:06;99058.63;;;16.25;55.39
65010;BME280;51556;50.002;22.014;2022-09-20T13:31:34;99061.79;;;16.16;55.40
65010;BME280;51556;50.002;22.014;2022-09-20T13:34:22;99065.92;;;16.08;56.02
65010;BME280;51556;50.002;22.014;2022-09-20T13:36:53;99064.41;;;15.99;55.25
65010;BME280;51556;50.002;22.014;2022-09-20T13:39:32;99067.20;;;15.90;55.61
65010;BME280;51556;50.002;22.014;2022-09-20T13:42:04;99067.92;;;15.84;56.50
65010;BME280;51556;50.002;22.014;2022-09-20T13:44:31;99070.26;;;15.80;56.06
65010;BME280;51556;50.002;22.014;2022-09-20T13:46:59;99070.46;;;15.79;58.57
65010;BME280;51556;50.002;22.014;2022-09-20T13:49:29;99069.36;;;15.90;58.12
65010;BME280;51556;50.002;22.014;2022-09-20T13:51:55;99071.91;;;16.16;56.80
65010;BME280;51556;50.002;22.014;2022-09-20T13:54:29;99071.72;;;16.55;56.66
65010;BME280;51556;50.002;22.014;2022-09-20T13:56:58;99068.34;;;16.98;54.47
65010;BME280;51556;50.002;22.014;2022-09-20T13:59:31;99068.56;;;17.03;55.96
65010;BME280;51556;50.002;22.014;2022-09-20T14:01:57;99067.73;;;17.14;54.68
65010;BME280;51556;50.002;22.014;2022-09-20T14:04:24;99069.05;;;17.04;53.44
65010;BME280;51556;50.002;22.014;2022-09-20T14:06:52;99074.30;;;16.83;52.33
65010;BME280;51556;50.002;22.014;2022-09-20T14:11:46;99074.73;;;16.33;53.83
65010;BME280;51556;50.002;22.014;2022-09-20T14:14:12;99081.09;;;16.10;54.26
65010;BME280;51556;50.002;22.014;2022-09-20T14:16:41;99075.48;;;16.25;54.01
65010;BME280;51556;50.002;22.014;2022-09-20T14:19:13;99070.09;;;16.56;53.19
65010;BME280;51556;50.002;22.014;2022-09-20T14:21:40;99071.96;;;16.41;52.96
65010;BME280;51556;50.002;22.014;2022-09-20T14:26:40;99069.16;;;16.00;54.53
65010;BME280;51556;50.002;22.014;2022-09-20T14:29:38;99068.20;;;15.85;55.68
65010;BME280;51556;50.002;22.014;2022-09-20T14:37:23;99057.48;;;15.83;56.49
65010;BME280;51556;50.002;22.014;2022-09-20T14:39:55;99062.26;;;16.17;56.79
65010;BME280;51556;50.002;22.014;2022-09-20T14:44:55;99066.42;;;16.75;56.13
65010;BME280;51556;50.002;22.014;2022-09-20T14:47:35;99068.81;;;16.86;55.42
65010;BME280;51556;50.002;22.014;2022-09-20T14:50:25;99078.92;;;16.67;54.62
65010;BME280;51556;50.002;22.014;2022-09-20T14:56:26;99088.89;;;16.27;55.64
65010;BME280;51556;50.002;22.014;2022-09-20T15:01:31;99093.08;;;15.95;56.79
65010;BME280;51556;50.002;22.014;2022-09-20T15:03:58;99090.83;;;15.83;57.25
65010;BME280;51556;50.002;22.014;2022-09-20T15:06:30;99099.05;;;15.72;57.13
65010;BME280;51556;50.002;22.014;2022-09-20T15:08:58;99103.05;;;15.63;57.43
65010;BME280;51556;50.002;22.014;2022-09-20T15:11:24;99111.88;;;15.53;58.18
65010;BME280;51556;50.002;22.014;2022-09-20T15:13:50;99112.44;;;15.41;58.08
65010;BME280;51556;50.002;22.014;2022-09-20T15:16:17;99116.85;;;15.27;58.74
65010;BME280;51556;50.002;22.014;2022-09-20T15:18:44;99119.88;;;15.19;60.10
65010;BME280;51556;50.002;22.014;2022-09-20T15:21:10;99120.00;;;15.17;60.85
65010;BME280;51556;50.002;22.014;2022-09-20T15:23:36;99114.62;;;15.19;61.08
65010;BME280;51556;50.002;22.014;2022-09-20T15:26:02;99112.38;;;15.21;61.32
65010;BME280;51556;50.002;22.014;2022-09-20T15:28:28;99107.70;;;15.19;61.40
65010;BME280;51556;50.002;22.014;2022-09-20T15:30:57;99105.98;;;15.13;61.72
65010;BME280;51556;50.002;22.014;2022-09-20T15:33:24;99108.57;;;15.12;62.35
65010;BME280;51556;50.002;22.014;2022-09-20T15:35:50;99107.99;;;15.13;62.83
65010;BME280;51556;50.002;22.014;2022-09-20T15:38:17;99113.53;;;15.04;63.05
65010;BME280;51556;50.002;22.014;2022-09-20T15:40:47;99119.93;;;15.00;63.13
65010;BME280;51556;50.002;22.014;2022-09-20T15:43:16;99123.39;;;15.01;63.00
65010;BME280;51556;50.002;22.014;2022-09-20T15:45:53;99131.70;;;15.06;62.54
65010;BME280;51556;50.002;22.014;2022-09-20T15:48:22;99132.40;;;15.06;62.82
65010;BME280;51556;50.002;22.014;2022-09-20T15:51:14;99131.05;;;15.01;62.89
65010;BME280;51556;50.002;22.014;2022-09-20T15:53:42;99131.71;;;14.98;63.11
65010;BME280;51556;50.002;22.014;2022-09-20T15:56:20;99136.73;;;14.93;63.15
65010;BME280;51556;50.002;22.014;2022-09-20T15:58:49;99139.41;;;14.89;63.65
65010;BME280;51556;50.002;22.014;2022-09-20T16:01:16;99136.61;;;14.88;63.56
65010;BME280;51556;50.002;22.014;2022-09-20T16:03:43;99142.73;;;14.83;63.70
65010;BME280;51556;50.002;22.014;2022-09-20T16:06:09;99141.36;;;14.78;64.38
65010;BME280;51556;50.002;22.014;2022-09-20T16:08:37;99143.56;;;14.68;64.14
65010;BME280;51556;50.002;22.014;2022-09-20T16:11:05;99136.99;;;14.57;63.84
65010;BME280;51556;50.002;22.014;2022-09-20T16:13:31;99142.98;;;14.50;64.16
65010;BME280;51556;50.002;22.014;2022-09-20T16:15:59;99151.05;;;14.44;64.08
65010;BME280;51556;50.002;22.014;2022-09-20T16:18:26;99160.95;;;14.40;64.68
65010;BME280;51556;50.002;22.014;2022-09-20T16:21:12;99170.32;;;14.16;66.08
65010;BME280;51556;50.002;22.014;2022-09-20T16:23:39;99167.70;;;13.90;66.58
65010;BME280;51556;50.002;22.014;2022-09-20T16:26:06;99170.20;;;13.81;66.96
65010;BME280;51556;50.002;22.014;2022-09-20T16:28:33;99175.36;;;13.80;66.88
65010;BME280;51556;50.002;22.014;2022-09-20T16:30:59;99181.47;;;13.82;66.84
65010;BME280;51556;50.002;22.014;2022-09-20T16:33:25;99186.52;;;13.84;67.48
65010;BME280;51556;50.002;22.014;2022-09-20T16:35:51;99188.52;;;13.87;67.58
65010;BME280;51556;50.002;22.014;2022-09-20T16:38:16;99191.88;;;13.87;68.81
65010;BME280;51556;50.002;22.014;2022-09-20T16:40:46;99198.70;;;13.85;68.70
65010;BME280;51556;50.002;22.014;2022-09-20T16:43:12;99204.02;;;13.84;67.58
65010;BME280;51556;50.002;22.014;2022-09-20T16:45:39;99208.58;;;13.77;65.78
65010;BME280;51556;50.002;22.014;2022-09-20T16:48:05;99218.66;;;13.60;65.24
65010;BME280;51556;50.002;22.014;2022-09-20T16:50:50;99215.92;;;13.49;65.04
65010;BME280;51556;50.002;22.014;2022-09-20T16:53:20;99217.63;;;13.32;65.37
65010;BME280;51556;50.002;22.014;2022-09-20T16:55:46;99221.39;;;13.17;65.41
65010;BME280;51556;50.002;22.014;2022-09-20T16:58:13;99224.02;;;13.08;66.00
65010;BME280;51556;50.002;22.014;2022-09-20T17:00:39;99222.12;;;13.02;66.38
65010;BME280;51556;50.002;22.014;2022-09-20T17:03:08;99224.09;;;12.97;66.40
65010;BME280;51556;50.002;22.014;2022-09-20T17:05:33;99231.94;;;12.95;66.68
65010;BME280;51556;50.002;22.014;2022-09-20T17:07:59;99236.14;;;12.91;66.95
65010;BME280;51556;50.002;22.014;2022-09-20T17:10:25;99238.77;;;12.87;66.89
65010;BME280;51556;50.002;22.014;2022-09-20T17:12:53;99238.98;;;12.86;67.51
65010;BME280;51556;50.002;22.014;2022-09-20T17:15:22;99243.05;;;12.86;67.79
65010;BME280;51556;50.002;22.014;2022-09-20T17:17:48;99246.11;;;12.84;67.94
65010;BME280;51556;50.002;22.014;2022-09-20T17:20:14;99247.72;;;12.84;68.06
65010;BME280;51556;50.002;22.014;2022-09-20T17:22:40;99252.49;;;12.84;68.13
65010;BME280;51556;50.002;22.014;2022-09-20T17:25:07;99253.71;;;12.84;67.93
65010;BME280;51556;50.002;22.014;2022-09-20T17:27:32;99252.27;;;12.85;67.83
65010;BME280;51556;50.002;22.014;2022-09-20T17:29:58;99255.10;;;12.85;67.83
65010;BME280;51556;50.002;22.014;2022-09-20T17:32:23;99255.27;;;12.80;68.06
65010;BME280;51556;50.002;22.014;2022-09-20T17:34:49;99260.58;;;12.80;67.98
65010;BME280;51556;50.002;22.014;2022-09-20T17:37:14;99262.70;;;12.80;67.59
65010;BME280;51556;50.002;22.014;2022-09-20T17:39:40;99267.21;;;12.77;67.69
65010;BME280;51556;50.002;22.014;2022-09-20T17:42:05;99267.95;;;12.71;67.82
65010;BME280;51556;50.002;22.014;2022-09-20T17:44:31;99273.20;;;12.67;67.81
65010;BME280;51556;50.002;22.014;2022-09-20T17:47:01;99278.42;;;12.64;67.97
65010;BME280;51556;50.002;22.014;2022-09-20T17:49:26;99280.70;;;12.60;67.85
65010;BME280;51556;50.002;22.014;2022-09-20T17:51:54;99283.98;;;12.58;68.32
65010;BME280;51556;50.002;22.014;2022-09-20T17:54:20;99286.87;;;12.56;68.86
65010;BME280;51556;50.002;22.014;2022-09-20T17:56:48;99289.58;;;12.49;68.11
65010;BME280;51556;50.002;22.014;2022-09-20T17:59:16;99292.50;;;12.46;68.23
65010;BME280;51556;50.002;22.014;2022-09-20T18:01:43;99293.45;;;12.49;68.40
65010;BME280;51556;50.002;22.014;2022-09-20T18:04:09;99300.79;;;12.46;68.44
65010;BME280;51556;50.002;22.014;2022-09-20T18:06:41;99299.62;;;12.44;68.61
65010;BME280;51556;50.002;22.014;2022-09-20T18:09:11;99294.36;;;12.43;68.96
65010;BME280;51556;50.002;22.014;2022-09-20T18:11:39;99295.92;;;12.44;68.95
65010;BME280;51556;50.002;22.014;2022-09-20T18:14:06;99295.40;;;12.44;69.10
65010;BME280;51556;50.002;22.014;2022-09-20T18:16:35;99298.60;;;12.43;69.23
65010;BME280;51556;50.002;22.014;2022-09-20T18:19:02;99300.33;;;12.44;69.10
65010;BME280;51556;50.002;22.014;2022-09-20T18:21:30;99303.29;;;12.46;69.14
65010;BME280;51556;50.002;22.014;2022-09-20T18:23:56;99304.71;;;12.45;69.33
65010;BME280;51556;50.002;22.014;2022-09-20T18:26:28;99302.37;;;12.41;69.30